Startpagina
METAR-TAF:

METAR-TAF

Vliegvelden :

Rajkot, India

breedte: 22-18N, lengte: 070-47E, hoogte: 134 m

Actueel weer

Dit bericht is 3 uur en het 2 minuten geleden gemaakt, om 09:00 UTC
Wind 9 kt uit het noordnoordwesten
Temperatuur 39°C
Vochtigheid 19%
Druk 1011 hPa
Zicht: 6000 m
Weinig wolken op 8000 ft

METAR: VARK 250900Z 34009KT 6000 FEW080 39/11 Q1011

Tijdstip: 17:32 (12:02 UTC)

Verwachting

Dit bericht is 1 uur en het 2 minuten geleden gemaakt, om 11:00 UTC
Verwachting geldig van 25 om 12 UTC tot 25 om 21 UTC
Wind 8 kt uit het noordwesten
Zicht: 6000 m
Weinig wolken op 8000 ft

TAF: VARK 251100Z 2512/2521 32008KT 6000 FEW080

Waarnemingen en weersverwachtingen van meer dan 4000 vliegvelden (METAR en TAF).

De beschikbare stations zijn de gele en rode punten op de kaart.

Ga met uw muis naar het station om de naam te zien.

Klik dan om waarnemingen en weersverwachtingen te zien.

kaart wijzigen: klik op de groene knoppen met een zwart kruis om in te zoomen, op de groene knop met een streepje om uit te zoomen of op de groene pijlen voor aangrenzende kaarten.


METAR-TAF: